Time;durP1;ratioP1;P1;durP2;ratioP2;P2;SDS_P1;SDS_P2;PMS_P1;PMS_P2;Temp;Humidity;BMP_temperature;BMP_pressure;BME280_temperature;BME280_humidity;BME280_pressure;Samples;Min_cycle;Max_cycle;Signal;HPM_P1;HPM_P2
2023/07/22 00:01:20;;;;;;;3.63;2.63;;;;;;;15.11;90.70;155243.16;4890495;29;20822;-81
2023/07/22 00:04:05;;;;;;;3.33;2.40;;;;;;;15.04;91.36;155223.63;4892238;29;20534;-81
2023/07/22 00:06:51;;;;;;;3.50;2.90;;;;;;;14.99;91.33;155210.63;4897839;29;21128;-80
2023/07/22 00:09:38;;;;;;;4.30;2.73;;;;;;;14.94;91.40;155197.66;4894227;29;20888;-80
2023/07/22 00:12:25;;;;;;;3.13;2.17;;;;;;;14.95;91.72;155200.25;4897319;29;20452;-80
2023/07/22 00:15:12;;;;;;;3.10;2.77;;;;;;;14.91;91.79;155191.16;4898315;29;20468;-80
2023/07/22 00:17:57;;;;;;;3.10;2.10;;;;;;;14.87;91.08;155179.47;4896275;29;20483;-80
2023/07/22 00:20:43;;;;;;;3.23;2.50;;;;;;;14.85;92.05;155174.28;4897567;29;20609;-81
2023/07/22 00:23:28;;;;;;;2.73;2.10;;;;;;;14.78;91.69;155157.38;4896574;29;20486;-80
2023/07/22 00:26:13;;;;;;;3.57;3.10;;;;;;;14.70;91.99;155136.59;4891727;29;20797;-80
2023/07/22 00:28:58;;;;;;;3.20;2.40;;;;;;;14.64;92.40;155121.00;4889801;29;20453;-80
2023/07/22 00:31:45;;;;;;;3.27;2.80;;;;;;;14.62;92.28;155115.81;4897143;29;20525;-80
2023/07/22 00:34:30;;;;;;;2.67;2.40;;;;;;;14.62;91.78;155115.81;4896554;29;20489;-81
2023/07/22 00:37:16;;;;;;;2.43;2.23;;;;;;;14.66;91.93;155124.91;4904649;29;20485;-80
2023/07/22 00:40:05;;;;;;;5.23;2.47;;;;;;;14.68;91.39;155130.09;4907010;29;20487;-80
2023/07/22 00:42:51;;;;;;;3.30;2.70;;;;;;;14.72;91.37;155140.50;4889564;29;20558;-80
2023/07/22 00:45:36;;;;;;;3.00;2.70;;;;;;;14.63;91.61;155118.41;4894562;29;21011;-79
2023/07/22 00:48:23;;;;;;;2.70;2.50;;;;;;;14.51;91.54;155088.53;4894854;29;20456;-79
2023/07/22 00:51:09;;;;;;;5.73;2.90;;;;;;;14.46;92.24;155075.53;4896495;29;20453;-79
2023/07/22 00:53:54;;;;;;;4.83;3.10;;;;;;;14.36;92.99;155049.59;4895413;29;20425;-79
2023/07/22 00:56:41;;;;;;;3.37;2.80;;;;;;;14.32;93.42;155039.16;4894952;29;20950;-79
2023/07/22 00:59:27;;;;;;;3.03;2.50;;;;;;;14.27;93.73;155026.13;4890504;29;20519;-79
2023/07/22 01:02:12;;;;;;;3.30;2.57;;;;;;;14.25;93.75;155020.94;4909272;29;20981;-79
2023/07/22 01:05:00;;;;;;;3.17;2.80;;;;;;;14.20;93.86;155006.66;4903101;29;20484;-79
2023/07/22 01:07:45;;;;;;;3.30;2.90;;;;;;;14.17;94.55;155000.19;4887499;29;20494;-79
2023/07/22 01:10:30;;;;;;;3.67;3.07;;;;;;;14.15;94.67;154995.00;4894891;29;20455;-79
2023/07/22 01:13:16;;;;;;;3.30;2.50;;;;;;;14.12;94.54;154987.19;4892471;29;20647;-79
2023/07/22 01:16:01;;;;;;;4.00;3.40;;;;;;;14.08;94.60;154976.84;4904852;29;20581;-79
2023/07/22 01:18:46;;;;;;;2.73;2.53;;;;;;;14.06;94.58;154971.59;4892203;29;20495;-79
2023/07/22 01:21:33;;;;;;;3.23;2.60;;;;;;;14.05;95.10;154969.03;4892716;29;20824;-79
2023/07/22 01:24:21;;;;;;;3.60;2.80;;;;;;;14.07;95.14;154974.22;4901978;29;20441;-79
2023/07/22 01:27:08;;;;;;;2.87;2.57;;;;;;;14.08;95.26;154976.84;4894834;29;20436;-79
2023/07/22 01:29:53;;;;;;;2.80;2.40;;;;;;;14.08;94.90;154975.53;4891578;29;20459;-79
2023/07/22 01:32:39;;;;;;;3.63;3.27;;;;;;;14.11;94.80;154984.59;4894650;29;21000;-80
2023/07/22 01:35:26;;;;;;;3.60;3.10;;;;;;;14.10;94.67;154982.03;4894236;29;20850;-80
2023/07/22 01:38:11;;;;;;;3.60;2.50;;;;;;;14.09;94.65;154978.09;4892295;29;20455;-80
2023/07/22 01:40:58;;;;;;;3.40;2.80;;;;;;;14.02;95.17;154962.56;4903955;29;20945;-80
2023/07/22 01:43:43;;;;;;;2.90;2.60;;;;;;;14.02;95.30;154961.25;4894572;29;20450;-79
2023/07/22 01:46:28;;;;;;;3.90;2.30;;;;;;;13.96;95.65;154945.66;4897215;29;20475;-79
2023/07/22 01:49:13;;;;;;;4.00;2.30;;;;;;;13.97;95.97;154949.56;4892540;29;20550;-79
2023/07/22 01:51:59;;;;;;;3.73;3.20;;;;;;;13.99;95.76;154953.44;4893022;29;20435;-79
2023/07/22 01:54:44;;;;;;;3.03;2.67;;;;;;;13.98;95.83;154952.13;4903761;29;20458;-79
2023/07/22 01:57:31;;;;;;;5.30;2.80;;;;;;;13.98;95.52;154950.81;4891383;29;20529;-79
2023/07/22 02:00:17;;;;;;;3.47;2.70;;;;;;;13.97;95.77;154949.56;4891406;29;20623;-79
2023/07/22 02:03:03;;;;;;;3.13;2.57;;;;;;;13.94;96.21;154941.78;4891562;29;20536;-79
2023/07/22 02:05:48;;;;;;;4.00;2.97;;;;;;;13.91;96.21;154932.66;4902489;29;20470;-80
2023/07/22 02:08:33;;;;;;;2.90;2.60;;;;;;;13.93;96.32;154939.16;4891439;29;20464;-79
2023/07/22 02:11:18;;;;;;;3.10;2.60;;;;;;;13.93;96.26;154937.84;4889821;29;20588;-79
2023/07/22 02:14:06;;;;;;;5.80;3.07;;;;;;;13.92;96.27;154935.28;4893616;29;20430;-80
2023/07/22 02:16:52;;;;;;;4.47;3.00;;;;;;;13.87;96.45;154923.56;4889369;29;20925;-80
2023/07/22 02:19:37;;;;;;;3.10;2.80;;;;;;;13.88;96.90;154924.88;4890930;29;20597;-79
2023/07/22 02:22:23;;;;;;;4.53;2.80;;;;;;;13.85;96.98;154917.06;4906051;29;20558;-79
2023/07/22 02:25:10;;;;;;;3.17;2.60;;;;;;;13.87;96.90;154922.31;4902945;29;20978;-79
2023/07/22 02:27:55;;;;;;;2.50;2.30;;;;;;;13.87;96.66;154922.31;4897022;29;20523;-79
2023/07/22 02:30:42;;;;;;;3.03;2.73;;;;;;;13.84;96.80;154914.50;4904134;29;20481;-80
2023/07/22 02:33:27;;;;;;;4.10;2.73;;;;;;;13.83;96.81;154913.22;4893356;29;20443;-79
2023/07/22 02:36:15;;;;;;;4.60;2.93;;;;;;;13.84;96.57;154915.81;4892643;29;20449;-79
2023/07/22 02:39:00;;;;;;;4.30;2.80;;;;;;;13.83;96.54;154911.91;4890419;29;20474;-79
2023/07/22 02:41:45;;;;;;;3.23;2.70;;;;;;;13.79;96.67;154902.78;4892619;29;20442;-79
2023/07/22 02:44:31;;;;;;;3.33;2.57;;;;;;;13.77;96.88;154897.63;4885899;29;20542;-79
2023/07/22 02:47:18;;;;;;;3.60;2.53;;;;;;;13.80;96.84;154904.09;4888884;29;20459;-79
2023/07/22 02:50:04;;;;;;;3.03;2.60;;;;;;;13.82;96.75;154910.59;4890695;29;20460;-79
2023/07/22 02:52:50;;;;;;;3.00;2.20;;;;;;;13.81;96.56;154906.72;4902769;29;20497;-79
2023/07/22 02:55:35;;;;;;;3.13;2.83;;;;;;;13.80;96.39;154904.09;4890641;29;20536;-79
2023/07/22 02:58:21;;;;;;;3.73;2.73;;;;;;;13.79;96.58;154902.78;4891694;29;20522;-79
2023/07/22 03:01:08;;;;;;;2.77;2.20;;;;;;;13.78;96.58;154898.91;4893991;29;20554;-79
2023/07/22 03:03:55;;;;;;;3.23;2.93;;;;;;;13.75;96.73;154891.13;4889349;29;20534;-79
2023/07/22 03:06:44;;;;;;;2.87;2.50;;;;;;;13.72;96.63;154883.34;4892060;29;20486;-79
2023/07/22 03:09:30;;;;;;;3.90;2.63;;;;;;;13.72;96.49;154884.63;4885202;29;20865;-79
2023/07/22 03:12:15;;;;;;;3.60;2.80;;;;;;;13.69;96.65;154875.53;4890285;29;20446;-79
2023/07/22 03:15:01;;;;;;;3.30;2.70;;;;;;;13.68;96.59;154872.97;4892490;29;20470;-78
2023/07/22 03:17:46;;;;;;;4.23;2.70;;;;;;;13.68;96.37;154872.97;4892301;29;20998;-79
2023/07/22 03:20:33;;;;;;;3.20;2.87;;;;;;;13.66;96.27;154869.06;4890961;29;20470;-78
2023/07/22 03:23:19;;;;;;;3.17;2.63;;;;;;;13.59;96.63;154850.91;4889074;29;20771;-79
2023/07/22 03:26:05;;;;;;;2.93;2.60;;;;;;;13.56;96.61;154841.78;4890511;29;20451;-78
2023/07/22 03:28:51;;;;;;;3.13;2.83;;;;;;;13.55;97.01;154839.22;4900218;29;20974;-78
2023/07/22 03:31:36;;;;;;;3.70;2.50;;;;;;;13.52;97.16;154831.44;4889621;29;20446;-78
2023/07/22 03:34:21;;;;;;;3.03;2.73;;;;;;;13.48;97.01;154821.03;4904564;29;20831;-79
2023/07/22 03:37:09;;;;;;;3.90;3.10;;;;;;;13.46;97.44;154815.84;4889852;29;20450;-79
2023/07/22 03:39:54;;;;;;;4.13;2.73;;;;;;;13.43;97.70;154810.66;4889916;29;20466;-79
2023/07/22 03:42:40;;;;;;;2.73;2.43;;;;;;;13.42;97.79;154806.81;4905004;29;20882;-79
2023/07/22 03:45:25;;;;;;;3.90;2.90;;;;;;;13.41;97.79;154805.50;4890788;29;21373;-79
2023/07/22 03:48:10;;;;;;;3.50;2.70;;;;;;;13.43;97.90;154809.38;4887234;29;20553;-79
2023/07/22 03:50:56;;;;;;;3.33;2.90;;;;;;;13.43;97.93;154810.66;4887035;29;20458;-79
2023/07/22 03:53:42;;;;;;;4.63;2.77;;;;;;;13.42;97.69;154808.06;4891583;29;20567;-78
2023/07/22 03:56:28;;;;;;;3.53;3.10;;;;;;;13.45;97.49;154813.28;4887873;29;20909;-78
2023/07/22 03:59:13;;;;;;;3.90;2.70;;;;;;;13.43;97.80;154810.66;4901754;29;20442;-79
2023/07/22 04:01:58;;;;;;;2.80;2.57;;;;;;;13.41;97.72;154805.50;4888467;29;20514;-79
2023/07/22 04:04:43;;;;;;;5.60;3.10;;;;;;;13.41;98.00;154805.50;4883421;29;20632;-79
2023/07/22 04:07:34;;;;;;;3.40;2.83;;;;;;;13.41;98.12;154805.50;4888102;29;20483;-79
2023/07/22 04:10:23;;;;;;;3.90;2.93;;;;;;;13.42;98.36;154806.81;4900203;29;20487;-79
2023/07/22 04:13:09;;;;;;;3.50;3.20;;;;;;;13.45;98.62;154813.28;4901276;29;20523;-79
2023/07/22 04:15:54;;;;;;;4.50;2.90;;;;;;;13.47;98.50;154819.78;4902195;29;20485;-79
2023/07/22 04:18:39;;;;;;;4.47;3.40;;;;;;;13.49;98.22;154824.94;4888058;29;20962;-79
2023/07/22 04:21:25;;;;;;;3.37;3.07;;;;;;;13.51;98.36;154828.81;4885827;29;20480;-79
2023/07/22 04:24:13;;;;;;;3.17;2.70;;;;;;;13.55;98.38;154839.22;4889196;29;20451;-79
2023/07/22 04:27:02;;;;;;;3.43;2.77;;;;;;;13.60;98.07;154852.22;4891473;29;20844;-79
2023/07/22 04:29:49;;;;;;;3.80;3.13;;;;;;;13.66;98.02;154867.78;4892147;29;20466;-79
2023/07/22 04:32:34;;;;;;;3.80;2.93;;;;;;;13.74;97.54;154889.81;4902840;29;20445;-78
2023/07/22 04:35:21;;;;;;;3.77;2.93;;;;;;;13.84;97.28;154914.50;4886432;29;20511;-79
2023/07/22 04:38:06;;;;;;;3.20;2.70;;;;;;;13.98;96.56;154950.81;4886582;29;20453;-79
2023/07/22 04:40:52;;;;;;;3.97;3.10;;;;;;;14.12;96.11;154985.88;4887748;29;20480;-78
2023/07/22 04:43:39;;;;;;;2.53;2.20;;;;;;;14.26;95.64;155022.25;4885658;29;20460;-79
2023/07/22 04:46:25;;;;;;;2.63;2.40;;;;;;;14.37;94.86;155050.88;4884655;29;20479;-79
2023/07/22 04:49:10;;;;;;;3.17;2.53;;;;;;;14.47;94.45;155078.16;4889873;29;20528;-79
2023/07/22 04:51:56;;;;;;;3.20;2.83;;;;;;;14.58;94.14;155105.44;4890996;29;20963;-79
2023/07/22 04:54:42;;;;;;;3.43;2.90;;;;;;;14.70;93.75;155135.28;4893941;29;20456;-80
2023/07/22 04:57:27;;;;;;;3.10;2.60;;;;;;;14.80;93.40;155161.31;4896333;29;20444;-80
2023/07/22 05:00:16;;;;;;;5.10;2.30;;;;;;;14.90;93.10;155188.56;4892185;29;20481;-80
2023/07/22 05:03:01;;;;;;;2.97;2.67;;;;;;;15.05;92.62;155226.22;4893601;29;20473;-80
2023/07/22 05:05:46;;;;;;;3.20;2.70;;;;;;;15.19;91.82;155262.63;4899388;29;20861;-80
2023/07/22 05:08:31;;;;;;;3.80;3.07;;;;;;;15.35;91.31;155304.22;4900677;29;20461;-80
2023/07/22 05:11:18;;;;;;;3.00;2.33;;;;;;;15.46;90.19;155331.56;4899291;29;20496;-80
2023/07/22 05:14:03;;;;;;;2.90;2.33;;;;;;;15.52;90.04;155348.44;4902589;29;20460;-75
2023/07/22 05:16:50;;;;;;;3.00;2.37;;;;;;;15.53;90.09;155349.75;4898556;29;20845;-76
2023/07/22 05:19:35;;;;;;;4.80;2.93;;;;;;;15.50;89.93;155343.25;4895894;29;20456;-76
2023/07/22 05:22:20;;;;;;;6.13;2.80;;;;;;;15.49;90.19;155339.38;4901583;29;20464;-76
2023/07/22 05:25:07;;;;;;;3.00;2.60;;;;;;;15.52;90.67;155347.13;4902841;29;20457;-76
2023/07/22 05:27:52;;;;;;;3.27;2.73;;;;;;;15.67;90.69;155387.41;4894819;29;20460;-76
2023/07/22 05:30:37;;;;;;;3.30;2.60;;;;;;;15.83;90.16;155427.75;4903676;29;20617;-76
2023/07/22 05:33:24;;;;;;;8.37;2.97;;;;;;;15.99;89.68;155468.06;4903505;29;20456;-77
2023/07/22 05:36:12;;;;;;;2.60;2.10;;;;;;;16.13;89.15;155504.44;4901363;29;20972;-77
2023/07/22 05:38:58;;;;;;;3.23;2.93;;;;;;;16.34;88.62;155559.06;4902677;29;20879;-76
2023/07/22 05:41:43;;;;;;;3.80;3.30;;;;;;;16.55;87.25;155613.72;4902070;29;21056;-77
2023/07/22 05:44:28;;;;;;;4.53;3.57;;;;;;;16.69;86.77;155650.16;4905310;29;20440;-77
2023/07/22 05:47:14;;;;;;;2.60;2.40;;;;;;;16.89;85.89;155702.19;4898910;29;20918;-77
2023/07/22 05:50:00;;;;;;;3.10;2.80;;;;;;;17.06;85.54;155745.13;4903223;29;20474;-77
2023/07/22 05:52:46;;;;;;;5.30;2.80;;;;;;;17.18;84.77;155775.09;4903439;29;20963;-77
2023/07/22 05:55:34;;;;;;;4.50;2.80;;;;;;;17.38;84.30;155827.13;4899176;29;20457;-77
2023/07/22 05:58:19;;;;;;;4.27;3.17;;;;;;;17.50;83.31;155858.38;4903726;29;20461;-77
2023/07/22 06:01:04;;;;;;;5.67;2.97;;;;;;;17.61;82.76;155888.34;4901054;29;20621;-77
2023/07/22 06:03:50;;;;;;;3.53;3.00;;;;;;;17.70;82.17;155909.19;4899782;29;20457;-77
2023/07/22 06:06:37;;;;;;;4.10;3.20;;;;;;;17.83;82.09;155943.03;4899778;29;20484;-77
2023/07/22 06:09:22;;;;;;;3.60;3.30;;;;;;;17.97;81.30;155980.81;4912906;29;20454;-77
2023/07/22 06:12:08;;;;;;;4.70;3.70;;;;;;;18.10;80.75;156014.66;4900619;29;20519;-77
2023/07/22 06:14:53;;;;;;;3.77;3.43;;;;;;;18.25;80.29;156052.41;4900498;29;20461;-78
2023/07/22 06:17:38;;;;;;;4.03;3.60;;;;;;;18.40;79.75;156090.22;4902698;29;21099;-77
2023/07/22 06:20:24;;;;;;;3.67;3.37;;;;;;;18.47;80.76;156108.44;4899925;29;20805;-77
2023/07/22 06:23:11;;;;;;;3.70;3.40;;;;;;;18.51;80.17;156118.88;4899645;29;20533;-77
2023/07/22 06:25:56;;;;;;;4.83;3.37;;;;;;;18.50;80.28;156116.31;4900372;29;20806;-77
2023/07/22 06:28:42;;;;;;;3.60;3.30;;;;;;;18.56;80.80;156131.94;4900948;29;20454;-77
2023/07/22 06:31:30;;;;;;;4.70;3.77;;;;;;;18.64;80.34;156154.06;4895640;29;20587;-77
2023/07/22 06:34:15;;;;;;;3.40;3.00;;;;;;;18.95;79.75;156233.56;4899135;29;20543;-77
2023/07/22 06:37:00;;;;;;;3.97;2.70;;;;;;;19.23;79.15;156306.53;4898845;29;20613;-77
2023/07/22 06:39:47;;;;;;;4.73;3.33;;;;;;;19.43;78.32;156358.69;4892162;29;21001;-77
2023/07/22 06:42:32;;;;;;;3.93;3.20;;;;;;;19.62;77.79;156406.91;4900123;29;20532;-77
2023/07/22 06:45:18;;;;;;;4.93;3.00;;;;;;;19.81;76.92;156456.47;4900922;29;21014;-77
2023/07/22 06:48:03;;;;;;;5.63;3.20;;;;;;;20.10;75.01;156529.47;4896903;29;20838;-77
2023/07/22 06:50:49;;;;;;;3.47;3.13;;;;;;;20.21;75.55;156558.19;4897087;29;20468;-77
2023/07/22 06:53:34;;;;;;;2.90;2.60;;;;;;;20.36;75.23;156598.66;4901518;29;20578;-77
2023/07/22 06:56:20;;;;;;;4.93;2.83;;;;;;;20.41;74.55;156611.69;4897138;29;20448;-77
2023/07/22 06:59:06;;;;;;;3.87;2.70;;;;;;;20.66;72.94;156675.63;4900323;29;20805;-77
2023/07/22 07:01:51;;;;;;;3.13;2.73;;;;;;;20.96;69.83;156752.63;4899653;29;21139;-77
2023/07/22 07:04:36;;;;;;;2.93;2.50;;;;;;;21.19;70.33;156812.69;4897398;29;20757;-77
2023/07/22 07:07:22;;;;;;;2.87;2.60;;;;;;;21.36;68.72;156857.09;4898446;29;20921;-77
2023/07/22 07:10:08;;;;;;;4.30;2.27;;;;;;;21.54;67.65;156904.06;4898220;29;20461;-78
2023/07/22 07:12:54;;;;;;;3.50;2.87;;;;;;;21.76;67.11;156960.22;4898724;29;20605;-78
2023/07/22 07:15:40;;;;;;;4.30;2.50;;;;;;;21.97;68.70;157013.78;4896450;29;20448;-78
2023/07/22 07:18:25;;;;;;;2.63;2.23;;;;;;;22.07;67.36;157039.88;4899345;29;20468;-78
2023/07/22 07:21:10;;;;;;;3.53;2.50;;;;;;;22.18;66.89;157069.94;4901599;29;20473;-78
2023/07/22 07:23:56;;;;;;;4.30;2.50;;;;;;;22.33;66.73;157109.13;4901736;29;20451;-78
2023/07/22 07:26:41;;;;;;;2.90;2.60;;;;;;;22.49;66.30;157148.28;4896366;29;20469;-78
2023/07/22 07:29:28;;;;;;;3.17;2.67;;;;;;;22.60;67.07;157178.34;4904621;29;20564;-78
2023/07/22 07:32:14;;;;;;;2.80;2.27;;;;;;;22.80;66.32;157230.63;4901876;29;20538;-78
2023/07/22 07:34:59;;;;;;;2.20;1.87;;;;;;;22.85;65.39;157242.38;4897812;29;20449;-78
2023/07/22 07:37:44;;;;;;;2.80;2.60;;;;;;;22.90;65.48;157256.75;4907848;29;20601;-77
2023/07/22 07:40:29;;;;;;;3.63;2.73;;;;;;;22.93;60.11;157263.28;4908748;29;20447;-78
2023/07/22 07:43:14;;;;;;;3.40;2.37;;;;;;;23.17;59.61;157324.69;4899697;29;20464;-79
2023/07/22 07:46:17;;;;;;;3.23;2.93;;;;;;;23.45;57.08;157399.28;4900166;29;20457;-78
2023/07/22 07:49:03;;;;;;;3.43;2.20;;;;;;;23.64;57.77;157448.91;4901214;29;20456;-78
2023/07/22 07:51:48;;;;;;;3.93;1.97;;;;;;;23.83;55.51;157497.28;4909036;29;20653;-78
2023/07/22 07:54:33;;;;;;;2.47;2.10;;;;;;;24.16;57.26;157582.34;4897594;29;20565;-78
2023/07/22 07:57:18;;;;;;;2.40;2.20;;;;;;;24.26;57.97;157607.19;4895028;29;20472;-79
2023/07/22 08:00:05;;;;;;;3.47;2.53;;;;;;;24.36;56.49;157633.38;4898282;29;20461;-79
2023/07/22 08:02:51;;;;;;;2.70;1.50;;;;;;;24.48;54.84;157664.75;4895791;29;20477;-79
2023/07/22 08:05:37;;;;;;;3.90;2.03;;;;;;;24.48;52.76;157664.75;4897148;29;20517;-77
2023/07/22 08:08:22;;;;;;;3.10;2.03;;;;;;;24.68;54.01;157717.06;4900815;29;20461;-77
2023/07/22 08:11:09;;;;;;;2.20;2.00;;;;;;;24.88;52.59;157769.47;4895530;29;20943;-77
2023/07/22 08:13:55;;;;;;;2.40;1.90;;;;;;;25.07;53.50;157817.88;4900220;29;20532;-78
2023/07/22 08:16:42;;;;;;;3.90;1.87;;;;;;;25.09;51.29;157824.41;4900129;29;20550;-77
2023/07/22 08:19:28;;;;;;;2.77;2.03;;;;;;;25.36;50.81;157893.78;4907596;29;20593;-78
2023/07/22 08:22:14;;;;;;;2.33;2.03;;;;;;;25.55;53.64;157942.25;4894166;29;20556;-78
2023/07/22 08:24:59;;;;;;;2.83;1.70;;;;;;;25.71;52.18;157984.09;4912490;29;20806;-78
2023/07/22 08:27:45;;;;;;;1.83;1.57;;;;;;;25.70;51.40;157982.81;4903452;29;20533;-78
2023/07/22 08:30:30;;;;;;;2.47;2.27;;;;;;;25.66;47.13;157971.00;4898644;29;20465;-78
2023/07/22 08:33:16;;;;;;;1.90;1.40;;;;;;;25.73;45.97;157989.38;4903291;29;20521;-78
2023/07/22 08:36:03;;;;;;;2.30;2.10;;;;;;;25.85;48.83;158020.78;4903283;29;20627;-78
2023/07/22 08:38:49;;;;;;;2.20;1.77;;;;;;;25.74;47.37;157993.28;4896096;29;20445;-78
2023/07/22 08:41:34;;;;;;;2.40;2.00;;;;;;;25.67;47.21;157973.66;4894659;29;20579;-77
2023/07/22 08:44:20;;;;;;;2.23;1.70;;;;;;;25.74;47.47;157991.97;4914481;29;21059;-78
2023/07/22 08:47:08;;;;;;;2.47;1.90;;;;;;;25.98;46.35;158056.13;4897718;29;20537;-78
2023/07/22 08:49:55;;;;;;;2.63;2.20;;;;;;;26.18;43.62;158107.25;4904829;29;20452;-78
2023/07/22 08:52:42;;;;;;;3.23;2.10;;;;;;;26.26;47.42;158128.22;4905659;29;20465;-78
2023/07/22 08:55:27;;;;;;;2.53;2.33;;;;;;;26.39;46.88;158162.25;4900563;29;20540;-78
2023/07/22 08:58:13;;;;;;;3.10;2.47;;;;;;;26.55;44.80;158204.19;4896812;29;20486;-78
2023/07/22 09:00:59;;;;;;;2.47;2.03;;;;;;;26.56;42.66;158206.75;4887931;29;20500;-78
2023/07/22 09:03:47;;;;;;;3.40;2.20;;;;;;;26.77;44.05;158259.19;4902950;29;20487;-78
2023/07/22 09:06:32;;;;;;;2.13;1.80;;;;;;;26.86;45.03;158282.78;4897354;29;20501;-78
2023/07/22 09:09:19;;;;;;;2.40;2.20;;;;;;;26.90;45.36;158293.28;4899638;29;20461;-77
2023/07/22 09:12:06;;;;;;;2.40;2.20;;;;;;;26.88;46.91;158288.00;4902317;29;20519;-78
2023/07/22 09:14:52;;;;;;;2.83;1.73;;;;;;;26.63;43.28;158222.50;4898395;29;20624;-78
2023/07/22 09:17:37;;;;;;;1.77;1.67;;;;;;;26.36;43.04;158154.41;4894880;29;20456;-78
2023/07/22 09:20:22;;;;;;;2.40;1.90;;;;;;;26.24;42.65;158122.94;4900552;29;20993;-78
2023/07/22 09:23:08;;;;;;;1.80;1.50;;;;;;;26.11;41.27;158087.53;4902266;29;20528;-78
2023/07/22 09:26:09;;;;;;;2.73;2.00;;;;;;;25.95;43.94;158048.25;4898569;29;20985;-78
2023/07/22 09:28:55;;;;;;;1.90;1.60;;;;;;;25.72;42.89;157986.72;4899063;29;20607;-78
2023/07/22 09:31:50;;;;;;;3.00;1.80;;;;;;;25.56;46.04;157944.84;4901089;29;20465;-78
2023/07/22 09:34:35;;;;;;;2.10;1.70;;;;;;;25.49;46.29;157927.84;4899679;29;20464;-78
2023/07/22 09:37:21;;;;;;;1.90;1.80;;;;;;;25.44;46.62;157916.00;4909612;29;20822;-78
2023/07/22 09:40:15;;;;;;;2.50;1.63;;;;;;;25.35;44.87;157892.47;4901062;29;20641;-78
2023/07/22 09:43:03;;;;;;;2.00;1.57;;;;;;;25.28;44.81;157872.84;4897648;29;20555;-78
2023/07/22 09:45:49;;;;;;;2.57;2.07;;;;;;;25.50;46.50;157929.13;4901360;29;20445;-78
2023/07/22 09:48:41;;;;;;;1.73;1.53;;;;;;;25.67;45.26;157973.66;4899323;29;20503;-78
2023/07/22 09:51:26;;;;;;;2.17;1.97;;;;;;;25.78;42.48;158003.78;4900053;29;20509;-77
2023/07/22 09:54:11;;;;;;;1.83;1.50;;;;;;;25.97;45.29;158052.22;4901715;29;20494;-77
2023/07/22 09:56:57;;;;;;;1.90;1.70;;;;;;;26.00;44.75;158060.03;4896710;29;20578;-77
2023/07/22 09:59:43;;;;;;;5.30;1.90;;;;;;;26.12;44.51;158090.16;4896590;29;20613;-77
2023/07/22 10:02:29;;;;;;;1.83;1.70;;;;;;;26.13;45.58;158094.16;4900939;29;20477;-77
2023/07/22 10:05:16;;;;;;;2.20;2.00;;;;;;;25.99;43.77;158058.75;4897745;29;20508;-77
2023/07/22 10:08:02;;;;;;;1.60;1.50;;;;;;;25.90;45.19;158033.84;4888102;29;20544;-77
2023/07/22 10:10:49;;;;;;;2.60;2.30;;;;;;;25.89;44.28;158031.25;4897631;29;20457;-77
2023/07/22 10:13:34;;;;;;;2.90;1.80;;;;;;;25.87;42.20;158026.00;4899580;29;20452;-77
2023/07/22 10:16:20;;;;;;;2.33;2.13;;;;;;;25.85;45.26;158020.78;4899483;29;20452;-77
2023/07/22 10:19:06;;;;;;;2.37;1.50;;;;;;;25.98;46.11;158054.81;4900451;29;20464;-78
2023/07/22 10:21:51;;;;;;;2.70;1.40;;;;;;;26.01;42.19;158062.66;4897558;29;20475;-78
2023/07/22 10:24:42;;;;;;;3.50;1.77;;;;;;;26.02;38.01;158066.63;4903590;29;20481;-78
2023/07/22 10:27:27;;;;;;;2.13;1.80;;;;;;;26.11;43.19;158087.53;4899427;29;20598;-78
2023/07/22 10:30:14;;;;;;;2.60;1.67;;;;;;;26.16;40.91;158101.97;4899953;29;20569;-78
2023/07/22 10:33:01;;;;;;;1.53;1.33;;;;;;;26.19;41.45;158108.53;4901554;29;20449;-78
2023/07/22 10:36:05;;;;;;;3.60;1.37;;;;;;;26.18;39.77;158107.25;4900311;29;20434;-78
2023/07/22 10:38:57;;;;;;;2.60;1.57;;;;;;;26.25;40.71;158125.56;4900812;29;20461;-78
2023/07/22 10:41:42;;;;;;;1.67;1.30;;;;;;;26.30;39.95;158137.34;4900226;29;20449;-78
2023/07/22 10:44:27;;;;;;;2.00;1.70;;;;;;;26.27;43.57;158130.81;4899778;29;20453;-78
2023/07/22 10:47:32;;;;;;;3.10;1.50;;;;;;;26.22;39.96;158116.38;4898167;29;21268;-78
2023/07/22 10:50:20;;;;;;;1.97;1.60;;;;;;;26.29;40.99;158136.03;4897080;29;20461;-78
2023/07/22 10:53:05;;;;;;;2.60;1.60;;;;;;;26.32;41.67;158142.56;4900003;29;20436;-78
2023/07/22 10:56:08;;;;;;;2.03;1.57;;;;;;;26.37;44.06;158155.72;4894842;29;20953;-78
2023/07/22 10:58:58;;;;;;;1.83;1.50;;;;;;;26.43;43.51;158171.38;4896119;29;20970;-78
2023/07/22 11:01:45;;;;;;;1.77;1.60;;;;;;;26.53;42.20;158198.91;4891934;29;21052;-78
2023/07/22 11:04:35;;;;;;;2.50;1.80;;;;;;;26.52;41.63;158196.31;4886832;29;20616;-78
2023/07/22 11:07:32;;;;;;;1.93;1.83;;;;;;;26.53;41.90;158198.91;4896381;29;20480;-78
2023/07/22 11:10:19;;;;;;;2.10;1.53;;;;;;;26.54;43.27;158201.53;4896456;29;20551;-78
2023/07/22 11:13:04;;;;;;;3.30;1.80;;;;;;;26.48;42.65;158184.47;4896976;29;20615;-78
2023/07/22 11:15:49;;;;;;;2.33;2.07;;;;;;;26.44;43.81;158175.34;4897557;29;20453;-78
2023/07/22 11:18:52;;;;;;;2.60;2.20;;;;;;;26.37;42.64;158156.97;4900259;29;20472;-78
2023/07/22 11:21:37;;;;;;;2.40;1.93;;;;;;;26.34;42.36;158147.84;4896656;29;20972;-78
2023/07/22 11:24:24;;;;;;;1.93;1.60;;;;;;;26.39;42.28;158162.25;4897771;29;20810;-78
2023/07/22 11:27:09;;;;;;;2.10;1.90;;;;;;;26.37;42.55;158156.97;4898491;29;20534;-78
2023/07/22 11:29:58;;;;;;;2.17;1.97;;;;;;;26.35;42.21;158151.75;4897823;29;20456;-78
2023/07/22 11:32:43;;;;;;;1.83;1.63;;;;;;;26.36;44.85;158153.06;4897210;29;20509;-78
2023/07/22 11:35:28;;;;;;;2.00;1.80;;;;;;;26.35;43.16;158150.44;4897481;29;20465;-78
2023/07/22 11:38:14;;;;;;;3.70;2.07;;;;;;;26.36;43.78;158153.06;4899252;29;20453;-78
2023/07/22 11:41:03;;;;;;;2.20;1.70;;;;;;;26.30;40.80;158138.66;4896959;29;20964;-78
2023/07/22 11:43:48;;;;;;;1.90;1.73;;;;;;;26.38;42.78;158158.31;4894855;29;20844;-78
2023/07/22 11:46:33;;;;;;;2.17;1.97;;;;;;;26.44;43.85;158175.34;4898635;29;20460;-78
2023/07/22 11:49:30;;;;;;;2.90;1.60;;;;;;;26.39;40.15;158162.25;4893040;29;20476;-78
2023/07/22 11:52:17;;;;;;;2.17;1.97;;;;;;;26.44;41.73;158175.34;4898417;29;20444;-78
2023/07/22 11:55:04;;;;;;;2.10;1.90;;;;;;;26.45;42.42;158177.94;4898777;29;20456;-78
2023/07/22 11:57:54;;;;;;;1.90;1.70;;;;;;;26.48;42.79;158185.81;4894944;29;20449;-78
2023/07/22 12:00:43;;;;;;;2.33;2.13;;;;;;;26.49;42.98;158188.44;4895437;29;20496;-78
2023/07/22 12:03:32;;;;;;;1.70;1.60;;;;;;;26.49;43.06;158188.44;4897173;29;21012;-78
2023/07/22 12:06:17;;;;;;;2.00;1.80;;;;;;;26.51;44.42;158193.66;4897049;29;20485;-78
2023/07/22 12:09:03;;;;;;;2.10;1.90;;;;;;;26.47;42.53;158183.22;4897985;29;20461;-78
2023/07/22 12:11:50;;;;;;;2.23;2.03;;;;;;;26.47;42.28;158183.22;4899921;29;20442;-78
2023/07/22 12:14:37;;;;;;;2.40;2.20;;;;;;;26.44;40.68;158175.34;4898290;29;20453;-78
2023/07/22 12:17:22;;;;;;;2.90;1.97;;;;;;;26.53;42.87;158197.56;4895948;29;20457;-78
2023/07/22 12:20:10;;;;;;;2.30;1.90;;;;;;;26.57;40.49;158208.06;4898857;29;20509;-77
2023/07/22 12:22:56;;;;;;;1.83;1.60;;;;;;;26.75;42.48;158253.91;4898461;29;20464;-77
2023/07/22 12:25:42;;;;;;;2.20;1.80;;;;;;;26.77;41.81;158260.50;4895831;29;20462;-78
2023/07/22 12:28:27;;;;;;;2.70;1.90;;;;;;;26.68;39.94;158235.59;4898430;29;20493;-78
2023/07/22 12:31:13;;;;;;;3.40;1.97;;;;;;;26.67;41.61;158232.94;4898703;29;20476;-78
2023/07/22 12:33:59;;;;;;;2.20;2.00;;;;;;;26.59;39.60;158213.31;4897546;29;20465;-78
2023/07/22 12:36:44;;;;;;;2.17;1.97;;;;;;;26.49;40.93;158188.44;4891630;29;20976;-77
2023/07/22 12:39:29;;;;;;;3.60;2.10;;;;;;;26.56;42.47;158205.44;4899196;29;20461;-77
2023/07/22 12:42:15;;;;;;;2.00;1.80;;;;;;;26.57;39.49;158209.41;4894572;29;20455;-77
2023/07/22 12:45:00;;;;;;;2.20;2.00;;;;;;;26.63;39.84;158225.09;4897500;29;20533;-77
2023/07/22 12:47:48;;;;;;;2.20;2.00;;;;;;;26.60;41.27;158217.25;4898398;29;20590;-77
2023/07/22 12:50:34;;;;;;;3.60;2.27;;;;;;;26.70;42.24;158242.13;4897723;29;20465;-78
2023/07/22 12:53:19;;;;;;;3.30;2.40;;;;;;;26.82;41.77;158272.31;4894472;29;20440;-78